Homestead ARB Airport Homestead US
ICAO: KHST
IATA: HST
Category: Medium
Scheduled Services: No

Elevation: 5 ft
TransAlt. 18000 ft.

Airport Communications:
APP/DEP:123.8
ATIS:132.275
CLNC DEL:27.58
GCA:123.8
GND:121.75
93FS:138.025
PMSV METRO:31.865
COMD POST:25.21
PTD:37.22
TWR:133.45

KHST Zoom In..

Runways:

(A) RW 05 length 11200 ft width 300 ft
ILS 109.90 / hdg 52

(B) RW 23 length 11200 ft width 300 ft
---- / hdg 232

Location; KHST
Day. 21 / Time. 14.01 Zulu
* Altimeter: 30.04
* Temperature: 25° c. 77°f.
* Wind from: 090° Speed 10 kn.
Dewpoint: 23° c.
Visibility: 10 Statute Miles.
Clouds: Scattered 1100 ft.
Clouds: Scattered 2000 ft.
Clouds: Broken 4600 ft.
Conditions: Light Rain.

KHST 211401Z AUTO 09010KT 10SM -RA SCT011 SCT020 BKN046 25/23 A3004 RMK AO2 SLP176


Wind From 090°
Speed 10 kn.

 
 
jpsmedia.com for Web Design SOUNDCLOUD worldairports.se 2018   terms of use